Time;durP1;ratioP1;P1;durP2;ratioP2;P2;SDS_P1;SDS_P2;PMS_P1;PMS_P2;Temp;Humidity;BMP_temperature;BMP_pressure;BME280_temperature;BME280_humidity;BME280_pressure;Samples;Min_cycle;Max_cycle;Signal;HPM_P1;HPM_P2
2022/01/19 00:00:17;;;;;;;108.30;20.65;;;;;;;;;;5135824;27;20631;-62
2022/01/19 00:02:44;;;;;;;48.60;18.83;;;;;;;;;;5134667;27;20056;-61
2022/01/19 00:05:11;;;;;;;144.00;22.42;;;;;;;;;;5116841;27;20056;-62
2022/01/19 00:07:38;;;;;;;44.42;18.48;;;;;;;;;;5136049;27;20510;-62
2022/01/19 00:10:09;;;;;;;40.25;16.00;;;;;;;;;;5135651;27;20058;-61
2022/01/19 00:12:35;;;;;;;31.48;16.30;;;;;;;;;;5148355;27;20528;-62
2022/01/19 00:15:02;;;;;;;56.63;17.38;;;;;;;;;;5127345;27;20134;-64
2022/01/19 00:17:28;;;;;;;30.42;16.38;;;;;;;;;;5135394;27;20549;-64
2022/01/19 00:19:54;;;;;;;41.95;16.98;;;;;;;;;;5135243;27;20055;-65
2022/01/19 00:22:21;;;;;;;46.60;17.00;;;;;;;;;;5135823;27;20039;-63
2022/01/19 00:24:47;;;;;;;38.08;17.23;;;;;;;;;;5138723;27;20506;-63
2022/01/19 00:27:14;;;;;;;50.30;17.65;;;;;;;;;;5140277;27;20553;-63
2022/01/19 00:29:40;;;;;;;55.67;18.60;;;;;;;;;;5134944;27;20051;-63
2022/01/19 00:32:06;;;;;;;31.27;16.98;;;;;;;;;;5135235;27;20520;-63
2022/01/19 00:34:33;;;;;;;31.27;16.23;;;;;;;;;;5135450;27;20059;-63
2022/01/19 00:36:59;;;;;;;36.63;18.67;;;;;;;;;;5139305;27;20055;-64
2022/01/19 00:39:31;;;;;;;31.58;15.63;;;;;;;;;;5139853;27;20055;-64
2022/01/19 00:41:57;;;;;;;46.15;19.48;;;;;;;;;;5119256;27;20047;-63
2022/01/19 00:44:24;;;;;;;36.25;16.88;;;;;;;;;;5142085;27;20562;-62
2022/01/19 00:46:50;;;;;;;42.58;17.80;;;;;;;;;;5135241;27;20047;-62
2022/01/19 00:49:17;;;;;;;45.65;16.92;;;;;;;;;;5135877;27;20445;-62
2022/01/19 00:51:43;;;;;;;59.95;18.58;;;;;;;;;;5134610;27;20142;-64
2022/01/19 00:54:09;;;;;;;38.90;16.83;;;;;;;;;;5134135;27;20054;-62
2022/01/19 00:56:35;;;;;;;41.50;17.35;;;;;;;;;;5134554;27;20491;-62
2022/01/19 00:59:02;;;;;;;61.05;15.73;;;;;;;;;;5138598;27;20090;-62
2022/01/19 01:01:28;;;;;;;59.30;17.08;;;;;;;;;;5142518;27;20051;-63
2022/01/19 01:03:55;;;;;;;56.95;15.68;;;;;;;;;;5154545;27;20529;-62
2022/01/19 01:06:21;;;;;;;59.65;16.10;;;;;;;;;;5138223;27;20080;-63
2022/01/19 01:08:48;;;;;;;75.57;16.52;;;;;;;;;;5140936;27;20055;-63
2022/01/19 01:11:14;;;;;;;37.63;17.05;;;;;;;;;;5136496;27;20058;-63
2022/01/19 01:16:38;;;;;;;31.55;15.25;;;;;;;;;;5134134;27;20052;-63
2022/01/19 01:19:06;;;;;;;25.83;14.65;;;;;;;;;;5134434;27;20047;-62
2022/01/19 01:21:32;;;;;;;41.20;15.30;;;;;;;;;;5134106;27;20481;-62
2022/01/19 01:23:59;;;;;;;29.02;15.07;;;;;;;;;;5135606;27;20085;-62
2022/01/19 01:26:25;;;;;;;33.67;13.60;;;;;;;;;;5134740;27;20062;-62
2022/01/19 01:28:51;;;;;;;30.27;14.00;;;;;;;;;;5140490;27;20044;-63
2022/01/19 01:31:18;;;;;;;37.33;15.63;;;;;;;;;;5135562;27;20079;-62
2022/01/19 01:33:44;;;;;;;30.38;13.85;;;;;;;;;;5134053;27;20044;-63
2022/01/19 01:36:11;;;;;;;79.90;15.57;;;;;;;;;;5137892;27;20047;-63
2022/01/19 01:38:37;;;;;;;44.38;14.13;;;;;;;;;;5133977;27;20055;-63
2022/01/19 01:41:12;;;;;;;27.60;13.85;;;;;;;;;;5131986;27;20051;-63
2022/01/19 01:43:40;;;;;;;75.38;14.50;;;;;;;;;;5140828;27;20074;-63
2022/01/19 01:46:11;;;;;;;45.70;13.82;;;;;;;;;;5134057;27;20108;-63
2022/01/19 01:48:43;;;;;;;35.58;14.73;;;;;;;;;;5138513;27;20051;-63
2022/01/19 01:53:57;;;;;;;29.75;13.48;;;;;;;;;;5153348;27;20047;-63
2022/01/19 01:56:24;;;;;;;30.58;14.40;;;;;;;;;;5140757;27;20469;-63
2022/01/19 01:58:51;;;;;;;28.77;14.85;;;;;;;;;;5118177;27;20702;-63
2022/01/19 02:01:17;;;;;;;25.00;13.85;;;;;;;;;;5142534;27;20055;-64
2022/01/19 02:03:45;;;;;;;38.70;13.90;;;;;;;;;;5133221;27;20562;-63
2022/01/19 02:09:06;;;;;;;28.27;14.30;;;;;;;;;;5136364;27;20048;-64
2022/01/19 02:23:00;;;;;;;28.48;12.93;;;;;;;;;;5118845;27;20058;-62
2022/01/19 02:25:30;;;;;;;24.42;12.40;;;;;;;;;;5138594;27;20055;-62
2022/01/19 02:41:39;;;;;;;26.83;13.52;;;;;;;;;;5102605;27;20058;-62
2022/01/19 02:44:08;;;;;;;26.02;14.50;;;;;;;;;;5132651;27;20051;-64
2022/01/19 02:49:14;;;;;;;22.08;12.18;;;;;;;;;;5133246;27;20513;-61
2022/01/19 02:49:39;;;;;;;22.55;12.48;;;;;;;;;;5133792;27;20058;-62
2022/01/19 02:52:06;;;;;;;22.45;13.05;;;;;;;;;;5130900;27;20048;-62
2022/01/19 02:54:33;;;;;;;26.77;13.93;;;;;;;;;;5151427;27;20055;-63
2022/01/19 02:57:01;;;;;;;23.38;13.82;;;;;;;;;;5135129;27;20051;-63
2022/01/19 03:10:18;;;;;;;25.85;13.43;;;;;;;;;;5133854;27;20047;-62
2022/01/19 03:12:44;;;;;;;31.45;14.48;;;;;;;;;;5132721;27;20052;-62
2022/01/19 03:15:11;;;;;;;22.92;13.70;;;;;;;;;;5141484;27;20473;-62
2022/01/19 03:17:37;;;;;;;24.83;13.77;;;;;;;;;;5133656;27;20056;-62
2022/01/19 03:20:05;;;;;;;25.58;12.77;;;;;;;;;;5136632;27;20079;-62
2022/01/19 03:22:39;;;;;;;25.75;14.15;;;;;;;;;;5138958;27;20051;-63
2022/01/19 03:25:11;;;;;;;27.40;13.70;;;;;;;;;;5136958;27;20122;-62
2022/01/19 03:27:39;;;;;;;23.10;14.07;;;;;;;;;;5149365;27;20486;-62
2022/01/19 03:30:08;;;;;;;25.35;12.77;;;;;;;;;;5150248;27;20051;-62
2022/01/19 03:32:35;;;;;;;20.50;13.00;;;;;;;;;;5132595;27;20051;-62
2022/01/19 03:35:01;;;;;;;21.92;13.32;;;;;;;;;;5134675;27;20056;-63
2022/01/19 03:37:28;;;;;;;27.92;13.73;;;;;;;;;;5148946;27;20055;-63
2022/01/19 03:39:54;;;;;;;24.80;12.98;;;;;;;;;;5138121;27;20043;-62
2022/01/19 03:42:24;;;;;;;23.75;13.13;;;;;;;;;;5136100;27;20051;-62
2022/01/19 03:44:50;;;;;;;22.90;13.30;;;;;;;;;;5136866;27;20062;-62
2022/01/19 03:47:17;;;;;;;23.15;13.48;;;;;;;;;;5151011;27;20491;-63
2022/01/19 03:49:44;;;;;;;24.42;12.95;;;;;;;;;;5145539;27;20055;-62
2022/01/19 03:52:10;;;;;;;24.63;13.98;;;;;;;;;;5141612;27;20048;-62
2022/01/19 03:54:38;;;;;;;23.92;14.93;;;;;;;;;;5154415;27;20140;-63
2022/01/19 03:57:04;;;;;;;30.70;15.07;;;;;;;;;;5154398;27;20472;-63
2022/01/19 03:59:31;;;;;;;28.45;15.15;;;;;;;;;;5135816;27;20054;-62
2022/01/19 04:01:58;;;;;;;29.40;14.73;;;;;;;;;;5145326;27;20062;-62
2022/01/19 04:04:38;;;;;;;30.27;16.13;;;;;;;;;;5141016;27;20047;-62
2022/01/19 04:07:24;;;;;;;33.28;16.88;;;;;;;;;;5136343;27;20054;-62
2022/01/19 04:09:51;;;;;;;37.40;18.98;;;;;;;;;;5135715;27;20495;-62
2022/01/19 04:12:25;;;;;;;42.55;18.88;;;;;;;;;;5136268;27;20509;-62
2022/01/19 04:14:52;;;;;;;45.25;21.98;;;;;;;;;;5144923;27;20506;-62
2022/01/19 04:17:19;;;;;;;52.22;22.05;;;;;;;;;;5136996;27;20056;-62
2022/01/19 04:19:47;;;;;;;48.70;22.48;;;;;;;;;;5141244;27;20057;-63
2022/01/19 04:22:17;;;;;;;43.70;21.05;;;;;;;;;;5143997;27;20493;-63
2022/01/19 04:24:44;;;;;;;57.03;23.50;;;;;;;;;;5140940;27;20058;-63
2022/01/19 04:29:56;;;;;;;52.33;25.52;;;;;;;;;;5131116;27;20130;-62
2022/01/19 04:32:30;;;;;;;48.95;24.33;;;;;;;;;;5136756;27;20465;-62
2022/01/19 04:34:56;;;;;;;54.72;25.00;;;;;;;;;;5136143;27;21683;-62
2022/01/19 04:37:34;;;;;;;54.15;24.35;;;;;;;;;;5153026;27;20563;-62
2022/01/19 04:48:26;;;;;;;55.53;24.75;;;;;;;;;;5135305;27;20468;-63
2022/01/19 05:05:10;;;;;;;54.25;21.65;;;;;;;;;;5140311;27;20061;-64
2022/01/19 05:07:30;;;;;;;59.80;23.33;;;;;;;;;;5142859;27;20058;-63
2022/01/19 05:13:23;;;;;;;56.08;22.60;;;;;;;;;;5139742;27;20058;-63
2022/01/19 05:15:30;;;;;;;48.63;20.83;;;;;;;;;;5143767;27;20054;-62
2022/01/19 05:17:56;;;;;;;48.35;22.33;;;;;;;;;;5151077;27;20047;-62
2022/01/19 05:20:23;;;;;;;50.60;22.35;;;;;;;;;;5150651;27;20499;-63
2022/01/19 05:22:49;;;;;;;52.63;21.88;;;;;;;;;;5139531;27;20057;-64
2022/01/19 05:25:15;;;;;;;46.08;20.70;;;;;;;;;;5142610;27;20054;-62
2022/01/19 05:27:42;;;;;;;44.50;21.13;;;;;;;;;;5137511;27;20051;-63
2022/01/19 05:30:08;;;;;;;48.97;21.75;;;;;;;;;;5136028;27;20544;-62
2022/01/19 05:32:34;;;;;;;46.92;21.23;;;;;;;;;;5147603;27;20138;-62
2022/01/19 05:35:01;;;;;;;42.10;20.65;;;;;;;;;;5143612;27;20047;-62
2022/01/19 05:37:27;;;;;;;41.83;21.60;;;;;;;;;;5140815;27;20043;-62
2022/01/19 05:39:53;;;;;;;43.33;20.77;;;;;;;;;;5135470;27;20052;-62
2022/01/19 05:42:20;;;;;;;48.30;22.08;;;;;;;;;;5146313;27;20049;-62
2022/01/19 05:44:47;;;;;;;48.60;22.58;;;;;;;;;;5146874;27;20055;-62
2022/01/19 05:47:16;;;;;;;46.28;21.05;;;;;;;;;;5138420;27;20126;-62
2022/01/19 05:49:46;;;;;;;53.15;23.60;;;;;;;;;;5133075;27;20418;-62
2022/01/19 05:52:13;;;;;;;47.40;22.17;;;;;;;;;;5133458;27;20134;-62
2022/01/19 05:54:39;;;;;;;57.67;22.88;;;;;;;;;;5133462;27;20499;-62
2022/01/19 05:57:06;;;;;;;51.35;22.88;;;;;;;;;;5133540;27;20043;-62
2022/01/19 05:59:32;;;;;;;50.55;22.55;;;;;;;;;;5134351;27;20047;-62
2022/01/19 06:01:59;;;;;;;50.45;22.75;;;;;;;;;;5133303;27;20047;-62
2022/01/19 06:04:25;;;;;;;53.40;23.17;;;;;;;;;;5133449;27;20061;-64
2022/01/19 06:06:55;;;;;;;53.47;22.80;;;;;;;;;;5133779;27;20056;-63
2022/01/19 06:10:09;;;;;;;52.25;23.58;;;;;;;;;;5133869;27;20052;-63
2022/01/19 06:12:09;;;;;;;49.78;23.00;;;;;;;;;;5126278;27;20052;-63
2022/01/19 06:14:37;;;;;;;48.70;22.08;;;;;;;;;;5133737;27;20051;-63
2022/01/19 06:17:04;;;;;;;44.10;22.13;;;;;;;;;;5115604;27;20052;-63
2022/01/19 06:19:31;;;;;;;53.15;25.20;;;;;;;;;;5133970;27;20561;-64
2022/01/19 06:21:57;;;;;;;50.65;23.17;;;;;;;;;;5132689;27;20127;-62
2022/01/19 06:24:23;;;;;;;51.72;24.10;;;;;;;;;;5133932;27;20051;-63
2022/01/19 06:26:50;;;;;;;60.00;26.15;;;;;;;;;;5133588;27;20055;-62
2022/01/19 06:29:16;;;;;;;60.90;26.42;;;;;;;;;;5133615;27;20048;-62
2022/01/19 06:31:43;;;;;;;52.35;25.70;;;;;;;;;;5132699;27;20514;-63
2022/01/19 06:34:09;;;;;;;57.10;26.65;;;;;;;;;;5133767;27;20048;-62
2022/01/19 06:36:35;;;;;;;54.95;26.48;;;;;;;;;;5133264;27;20059;-64
2022/01/19 06:39:02;;;;;;;58.13;26.15;;;;;;;;;;5140358;27;20066;-63
2022/01/19 06:41:29;;;;;;;52.50;25.30;;;;;;;;;;5124280;27;20059;-62
2022/01/19 06:43:55;;;;;;;56.75;26.67;;;;;;;;;;5128562;27;20541;-62
2022/01/19 06:46:21;;;;;;;49.47;24.88;;;;;;;;;;5132819;27;20051;-61
2022/01/19 06:48:48;;;;;;;51.47;26.67;;;;;;;;;;5132949;27;20546;-63
2022/01/19 06:51:14;;;;;;;52.30;25.75;;;;;;;;;;5132905;27;20081;-62
2022/01/19 06:53:40;;;;;;;52.60;25.80;;;;;;;;;;5133382;27;20138;-62
2022/01/19 06:56:07;;;;;;;47.42;24.65;;;;;;;;;;5133041;27;20052;-62
2022/01/19 06:58:33;;;;;;;57.25;25.73;;;;;;;;;;5133277;27;20091;-62
2022/01/19 07:00:59;;;;;;;50.30;25.98;;;;;;;;;;5133342;27;20062;-62
2022/01/19 07:03:26;;;;;;;60.03;27.63;;;;;;;;;;5144543;27;20063;-62
2022/01/19 07:05:52;;;;;;;56.95;26.70;;;;;;;;;;5158357;27;20134;-62
2022/01/19 07:08:18;;;;;;;58.13;26.02;;;;;;;;;;5157226;27;20075;-62
2022/01/19 07:10:45;;;;;;;55.03;28.00;;;;;;;;;;5157920;27;20104;-62
2022/01/19 07:13:11;;;;;;;56.28;27.48;;;;;;;;;;5121473;27;20088;-62
2022/01/19 07:15:40;;;;;;;60.65;28.08;;;;;;;;;;5151221;27;20057;-62
2022/01/19 07:18:06;;;;;;;68.97;30.23;;;;;;;;;;5147558;27;20145;-63
2022/01/19 07:20:35;;;;;;;63.47;28.70;;;;;;;;;;5118503;27;20101;-62
2022/01/19 07:23:01;;;;;;;66.90;28.35;;;;;;;;;;5136336;27;20077;-62
2022/01/19 07:25:31;;;;;;;60.88;29.65;;;;;;;;;;5136995;27;20056;-62
2022/01/19 07:27:57;;;;;;;60.55;28.17;;;;;;;;;;5137549;27;20047;-63
2022/01/19 07:30:24;;;;;;;67.43;30.77;;;;;;;;;;5136681;27;20509;-62
2022/01/19 07:32:51;;;;;;;66.43;29.25;;;;;;;;;;5135934;27;20058;-62
2022/01/19 07:35:18;;;;;;;62.67;29.75;;;;;;;;;;5135969;27;20059;-62
2022/01/19 07:37:44;;;;;;;65.57;29.73;;;;;;;;;;5117380;27;20051;-63
2022/01/19 07:40:12;;;;;;;63.67;29.92;;;;;;;;;;5135928;27;20043;-62
2022/01/19 07:42:39;;;;;;;71.28;30.25;;;;;;;;;;5136372;27;20071;-65
2022/01/19 07:45:06;;;;;;;67.78;29.35;;;;;;;;;;5136015;27;20051;-63
2022/01/19 07:47:32;;;;;;;67.40;29.67;;;;;;;;;;5136883;27;20055;-64
2022/01/19 07:49:59;;;;;;;58.75;29.25;;;;;;;;;;5117911;27;20062;-62
2022/01/19 07:52:26;;;;;;;72.97;30.05;;;;;;;;;;5136203;27;20205;-65
2022/01/19 07:54:52;;;;;;;73.13;30.55;;;;;;;;;;5136242;27;20545;-63
2022/01/19 07:57:19;;;;;;;61.83;29.17;;;;;;;;;;5144614;27;20514;-62
2022/01/19 07:59:45;;;;;;;77.00;32.65;;;;;;;;;;5154955;27;20107;-64
2022/01/19 08:02:13;;;;;;;78.90;32.40;;;;;;;;;;5156947;27;20047;-62
2022/01/19 08:04:40;;;;;;;76.40;31.90;;;;;;;;;;5156667;27;20058;-62
2022/01/19 08:07:06;;;;;;;75.32;31.88;;;;;;;;;;5140011;27;20055;-64
2022/01/19 08:09:33;;;;;;;75.22;31.63;;;;;;;;;;5154150;27;20501;-62
2022/01/19 08:12:00;;;;;;;77.03;31.48;;;;;;;;;;5155062;27;20062;-62
2022/01/19 08:14:26;;;;;;;71.32;31.38;;;;;;;;;;5144639;27;20071;-63
2022/01/19 08:16:54;;;;;;;67.10;30.88;;;;;;;;;;5140961;27;20158;-62
2022/01/19 08:19:20;;;;;;;66.85;31.42;;;;;;;;;;5146925;27;20052;-64
2022/01/19 08:21:47;;;;;;;78.20;32.72;;;;;;;;;;5135260;27;20123;-63
2022/01/19 08:24:13;;;;;;;66.35;28.33;;;;;;;;;;5146136;27;20109;-63
2022/01/19 08:26:40;;;;;;;70.78;31.77;;;;;;;;;;5137911;27;20059;-63
2022/01/19 08:29:06;;;;;;;69.82;30.17;;;;;;;;;;5135554;27;20078;-63
2022/01/19 08:31:33;;;;;;;64.05;31.58;;;;;;;;;;5135325;27;20502;-63
2022/01/19 08:33:59;;;;;;;71.78;32.25;;;;;;;;;;5135216;27;20048;-63
2022/01/19 08:36:26;;;;;;;77.53;33.30;;;;;;;;;;5138606;27;20550;-63
2022/01/19 08:38:53;;;;;;;73.55;33.60;;;;;;;;;;5135410;27;20501;-62
2022/01/19 08:41:19;;;;;;;73.70;32.85;;;;;;;;;;5134883;27;20059;-63
2022/01/19 08:43:46;;;;;;;77.78;34.45;;;;;;;;;;5134831;27;20052;-63
2022/01/19 08:46:12;;;;;;;69.13;32.00;;;;;;;;;;5134016;27;20055;-63
2022/01/19 08:48:39;;;;;;;69.68;33.58;;;;;;;;;;5136612;27;20044;-62
2022/01/19 08:51:06;;;;;;;77.13;34.22;;;;;;;;;;5152642;27;20051;-61
2022/01/19 08:53:32;;;;;;;76.20;34.65;;;;;;;;;;5134639;27;20552;-62
2022/01/19 08:55:59;;;;;;;84.95;36.42;;;;;;;;;;5135871;27;20047;-63
2022/01/19 08:58:25;;;;;;;79.88;35.67;;;;;;;;;;5134656;27;20056;-62
2022/01/19 09:00:51;;;;;;;74.95;35.78;;;;;;;;;;5135460;27;20105;-63
2022/01/19 09:03:18;;;;;;;70.72;34.85;;;;;;;;;;5134468;27;20048;-62
2022/01/19 09:05:45;;;;;;;75.07;34.00;;;;;;;;;;5135062;27;20142;-61
2022/01/19 09:08:12;;;;;;;71.47;34.45;;;;;;;;;;5134432;27;20051;-61
2022/01/19 09:10:40;;;;;;;81.10;36.70;;;;;;;;;;5143388;27;20055;-62
2022/01/19 09:13:07;;;;;;;83.18;36.35;;;;;;;;;;5135456;27;20056;-62
2022/01/19 09:15:33;;;;;;;78.40;34.10;;;;;;;;;;5135997;27;20138;-62
2022/01/19 09:18:00;;;;;;;78.97;36.40;;;;;;;;;;5145271;27;20054;-62
2022/01/19 09:20:26;;;;;;;78.10;34.83;;;;;;;;;;5134169;27;20563;-62
2022/01/19 09:22:53;;;;;;;75.85;34.92;;;;;;;;;;5134972;27;20091;-62
2022/01/19 09:25:19;;;;;;;77.88;36.35;;;;;;;;;;5146247;27;20066;-62
2022/01/19 09:27:45;;;;;;;78.95;34.58;;;;;;;;;;5155614;27;20047;-62
2022/01/19 09:30:14;;;;;;;81.45;36.65;;;;;;;;;;5155424;27;20100;-62
2022/01/19 09:32:41;;;;;;;87.35;37.08;;;;;;;;;;5153358;27;20054;-63
2022/01/19 09:35:09;;;;;;;76.03;35.70;;;;;;;;;;5149829;27;20047;-62
2022/01/19 09:37:37;;;;;;;74.07;35.65;;;;;;;;;;5134585;27;20131;-62
2022/01/19 09:40:23;;;;;;;76.60;35.78;;;;;;;;;;5134930;27;20051;-62
2022/01/19 09:42:51;;;;;;;85.43;36.22;;;;;;;;;;5134772;27;20054;-62
2022/01/19 09:45:17;;;;;;;76.93;35.72;;;;;;;;;;5154569;27;20050;-62
2022/01/19 09:47:43;;;;;;;77.35;35.70;;;;;;;;;;5154866;27;20078;-62
2022/01/19 09:50:10;;;;;;;73.18;34.65;;;;;;;;;;5143247;27;20534;-61
2022/01/19 09:52:37;;;;;;;75.35;36.00;;;;;;;;;;5134032;27;20063;-63
2022/01/19 09:55:04;;;;;;;67.85;34.70;;;;;;;;;;5149413;27;20410;-63
2022/01/19 09:57:32;;;;;;;74.65;34.65;;;;;;;;;;5139917;27;20058;-62
2022/01/19 09:59:59;;;;;;;73.05;33.78;;;;;;;;;;5154958;27;20076;-62
2022/01/19 10:02:25;;;;;;;74.43;34.25;;;;;;;;;;5137932;27;20055;-63
2022/01/19 10:05:04;;;;;;;72.55;34.58;;;;;;;;;;5141957;27;20058;-63
2022/01/19 10:07:30;;;;;;;71.35;33.58;;;;;;;;;;5134610;27;20146;-63
2022/01/19 10:10:01;;;;;;;78.65;35.30;;;;;;;;;;5134226;27;20132;-63
2022/01/19 10:18:09;;;;;;;74.35;35.40;;;;;;;;;;5133903;27;20051;-64
2022/01/19 10:20:36;;;;;;;74.97;33.25;;;;;;;;;;5134290;27;20249;-63
2022/01/19 10:23:03;;;;;;;69.10;33.50;;;;;;;;;;5133902;27;20482;-63
2022/01/19 10:25:49;;;;;;;68.47;33.60;;;;;;;;;;5133488;27;20058;-63
2022/01/19 10:28:15;;;;;;;61.20;30.50;;;;;;;;;;5133632;27;20087;-63
2022/01/19 10:30:41;;;;;;;69.22;33.40;;;;;;;;;;5152015;27;20055;-63
2022/01/19 10:33:07;;;;;;;65.15;30.40;;;;;;;;;;5153526;27;20051;-64
2022/01/19 10:35:38;;;;;;;65.05;34.13;;;;;;;;;;5148544;27;20055;-63
2022/01/19 10:38:05;;;;;;;63.30;31.90;;;;;;;;;;5136424;27;20058;-63
2022/01/19 10:40:32;;;;;;;65.30;33.22;;;;;;;;;;5137907;27;20083;-63
2022/01/19 10:42:58;;;;;;;65.07;31.73;;;;;;;;;;5136823;27;20082;-63
2022/01/19 10:45:30;;;;;;;72.15;33.55;;;;;;;;;;5136519;27;20108;-61
2022/01/19 10:47:56;;;;;;;64.68;31.52;;;;;;;;;;5138588;27;20113;-62
2022/01/19 10:50:25;;;;;;;65.07;34.03;;;;;;;;;;5133578;27;20059;-62
2022/01/19 10:52:52;;;;;;;65.85;33.58;;;;;;;;;;5116659;27;20052;-63
2022/01/19 10:55:19;;;;;;;62.35;32.50;;;;;;;;;;5133546;27;20047;-63
2022/01/19 10:57:46;;;;;;;55.67;30.85;;;;;;;;;;5151383;27;20051;-62
2022/01/19 11:00:13;;;;;;;61.25;32.00;;;;;;;;;;5158121;27;20047;-63
2022/01/19 11:02:47;;;;;;;56.55;30.10;;;;;;;;;;5139681;27;20513;-63
2022/01/19 11:05:14;;;;;;;69.05;32.83;;;;;;;;;;5135950;27;20146;-64
2022/01/19 11:07:41;;;;;;;62.83;31.05;;;;;;;;;;5136914;27;20071;-66
2022/01/19 11:10:11;;;;;;;54.00;30.75;;;;;;;;;;5137365;27;20052;-63
2022/01/19 11:12:47;;;;;;;51.28;28.77;;;;;;;;;;5119238;27;20059;-61
2022/01/19 11:15:15;;;;;;;60.17;30.70;;;;;;;;;;5155316;27;20058;-62
2022/01/19 11:17:42;;;;;;;65.22;32.78;;;;;;;;;;5148739;27;20062;-62
2022/01/19 11:20:11;;;;;;;59.35;30.88;;;;;;;;;;5138879;27;20055;-62
2022/01/19 11:22:55;;;;;;;59.30;29.85;;;;;;;;;;5157624;27;20402;-62
2022/01/19 11:25:33;;;;;;;59.17;30.20;;;;;;;;;;5157377;27;20062;-62
2022/01/19 11:28:22;;;;;;;65.07;33.88;;;;;;;;;;5132113;27;20510;-62
2022/01/19 11:30:48;;;;;;;59.60;29.90;;;;;;;;;;5129148;27;20062;-61
2022/01/19 11:33:25;;;;;;;56.88;32.35;;;;;;;;;;5135940;27;20048;-62
2022/01/19 11:35:54;;;;;;;57.47;32.15;;;;;;;;;;5136500;27;20051;-62
2022/01/19 11:38:40;;;;;;;60.78;32.08;;;;;;;;;;5136548;27;20055;-62
2022/01/19 11:41:07;;;;;;;58.10;32.00;;;;;;;;;;5144880;27;20055;-62
2022/01/19 11:43:33;;;;;;;61.22;32.20;;;;;;;;;;5115694;27;20593;-62
2022/01/19 11:46:03;;;;;;;55.70;30.50;;;;;;;;;;5134745;27;20055;-62
2022/01/19 11:48:32;;;;;;;61.45;31.50;;;;;;;;;;5130442;27;20490;-61
2022/01/19 11:51:23;;;;;;;62.08;32.33;;;;;;;;;;5136138;27;20062;-62
2022/01/19 11:54:00;;;;;;;54.67;30.77;;;;;;;;;;5136192;27;20054;-62
2022/01/19 11:56:26;;;;;;;59.70;30.63;;;;;;;;;;5135800;27;20050;-62
2022/01/19 11:59:04;;;;;;;54.78;31.35;;;;;;;;;;5136081;27;20051;-62
2022/01/19 12:01:30;;;;;;;61.05;32.60;;;;;;;;;;5136360;27;20054;-62
2022/01/19 12:04:13;;;;;;;62.42;34.63;;;;;;;;;;5135622;27;20588;-62
2022/01/19 12:06:42;;;;;;;55.33;31.20;;;;;;;;;;5152156;27;20047;-62
2022/01/19 12:09:11;;;;;;;61.35;31.65;;;;;;;;;;5146442;27;20057;-63
2022/01/19 12:11:44;;;;;;;58.83;31.88;;;;;;;;;;5124023;27;20384;-62
2022/01/19 12:14:21;;;;;;;60.88;32.40;;;;;;;;;;5127325;27;20662;-63
2022/01/19 12:16:57;;;;;;;57.95;32.33;;;;;;;;;;5140780;27;20043;-62
2022/01/19 12:19:27;;;;;;;59.70;33.05;;;;;;;;;;5147041;27;20066;-61
2022/01/19 12:21:55;;;;;;;61.63;31.13;;;;;;;;;;5124696;27;20082;-61
2022/01/19 12:24:56;;;;;;;60.72;32.88;;;;;;;;;;5136549;27;20059;-62
2022/01/19 12:27:29;;;;;;;52.33;30.43;;;;;;;;;;5132346;27;20142;-62
2022/01/19 12:29:55;;;;;;;52.67;29.90;;;;;;;;;;5129442;27;20286;-62
2022/01/19 12:32:32;;;;;;;54.75;29.50;;;;;;;;;;5135245;27;20052;-61
2022/01/19 12:35:04;;;;;;;51.55;30.10;;;;;;;;;;5131716;27;20051;-61
2022/01/19 12:37:33;;;;;;;57.45;31.80;;;;;;;;;;5134690;27;20052;-61
2022/01/19 12:40:02;;;;;;;53.53;30.70;;;;;;;;;;5135158;27;20056;-61
2022/01/19 12:42:42;;;;;;;61.88;31.08;;;;;;;;;;5131019;27;20056;-61
2022/01/19 12:45:28;;;;;;;58.38;30.27;;;;;;;;;;5134215;27;20051;-62
2022/01/19 12:47:58;;;;;;;54.65;31.50;;;;;;;;;;5135354;27;20090;-62
2022/01/19 12:50:30;;;;;;;53.40;29.45;;;;;;;;;;5133620;27;20055;-61
2022/01/19 12:52:58;;;;;;;54.72;29.45;;;;;;;;;;5133636;27;20054;-63
2022/01/19 12:55:27;;;;;;;51.10;28.95;;;;;;;;;;5134653;27;20047;-63
2022/01/19 12:57:54;;;;;;;50.63;29.75;;;;;;;;;;5131063;27;20585;-64
2022/01/19 13:00:22;;;;;;;48.65;30.17;;;;;;;;;;5155727;27;20176;-64
2022/01/19 13:02:49;;;;;;;55.03;30.38;;;;;;;;;;5155969;27;20067;-62
2022/01/19 13:05:18;;;;;;;51.70;30.98;;;;;;;;;;5107076;27;20063;-60
2022/01/19 13:07:45;;;;;;;51.55;28.65;;;;;;;;;;5093630;28;20052;-63
2022/01/19 13:10:29;;;;;;;54.53;29.77;;;;;;;;;;5092499;28;20061;-63
2022/01/19 13:13:13;;;;;;;58.28;31.65;;;;;;;;;;5094326;28;20055;-62
2022/01/19 13:15:39;;;;;;;56.65;30.95;;;;;;;;;;5093248;28;20052;-63
2022/01/19 13:18:06;;;;;;;54.22;29.00;;;;;;;;;;5094201;28;20067;-63
2022/01/19 13:20:32;;;;;;;53.97;28.73;;;;;;;;;;5094539;28;20474;-62
2022/01/19 13:22:59;;;;;;;46.72;27.38;;;;;;;;;;5096711;28;20056;-62
2022/01/19 13:25:26;;;;;;;53.95;28.67;;;;;;;;;;5092438;28;20137;-61
2022/01/19 13:27:55;;;;;;;54.78;28.90;;;;;;;;;;5092774;28;20052;-63
2022/01/19 13:30:23;;;;;;;49.55;27.50;;;;;;;;;;5092442;28;20055;-62
2022/01/19 13:32:49;;;;;;;50.25;27.77;;;;;;;;;;5088317;28;20059;-63
2022/01/19 13:35:16;;;;;;;51.70;29.65;;;;;;;;;;5098620;28;20056;-62
2022/01/19 13:37:48;;;;;;;50.83;28.40;;;;;;;;;;5104453;27;20087;-62
2022/01/19 13:40:16;;;;;;;54.28;30.25;;;;;;;;;;5100109;28;20419;-63
2022/01/19 13:42:45;;;;;;;52.45;29.42;;;;;;;;;;5080050;28;20126;-63
2022/01/19 13:45:19;;;;;;;58.22;28.67;;;;;;;;;;5090928;28;20480;-62
2022/01/19 13:47:56;;;;;;;51.05;27.73;;;;;;;;;;5092620;28;20056;-63
2022/01/19 13:50:23;;;;;;;48.45;28.08;;;;;;;;;;5087478;28;20055;-65
2022/01/19 13:52:49;;;;;;;56.90;30.05;;;;;;;;;;5088042;28;20152;-63
2022/01/19 13:55:21;;;;;;;50.45;27.80;;;;;;;;;;5089561;28;20139;-62
2022/01/19 13:57:47;;;;;;;56.67;29.02;;;;;;;;;;5089367;28;20055;-61
2022/01/19 14:00:18;;;;;;;57.90;30.83;;;;;;;;;;5092091;28;20135;-61
2022/01/19 14:02:57;;;;;;;49.45;28.13;;;;;;;;;;5093197;28;20439;-62
2022/01/19 14:05:30;;;;;;;;;;;;;;;;;;5093596;28;20048;-62
2022/01/19 14:07:57;;;;;;;;;;;;;;;;;;5092471;28;44883;-62
2022/01/19 14:10:26;;;;;;;53.25;28.98;;;;;;;;;;5092090;28;46400;-63
2022/01/19 14:12:52;;;;;;;51.78;27.75;;;;;;;;;;5092341;28;20048;-63
2022/01/19 14:15:25;;;;;;;47.30;27.27;;;;;;;;;;5092366;28;20492;-61
2022/01/19 14:17:51;;;;;;;53.67;28.92;;;;;;;;;;5109049;28;20058;-63
2022/01/19 14:20:22;;;;;;;48.75;28.15;;;;;;;;;;5091985;28;20598;-62
2022/01/19 14:22:49;;;;;;;47.03;26.60;;;;;;;;;;5092445;28;20560;-62
2022/01/19 14:25:16;;;;;;;48.75;28.42;;;;;;;;;;5092539;28;20114;-63
2022/01/19 14:27:54;;;;;;;46.58;25.85;;;;;;;;;;5092607;28;20074;-62
2022/01/19 14:30:28;;;;;;;47.53;28.05;;;;;;;;;;5092513;28;20147;-62
2022/01/19 14:33:09;;;;;;;56.35;28.77;;;;;;;;;;5092755;28;20076;-62
2022/01/19 14:35:37;;;;;;;46.63;27.27;;;;;;;;;;5092716;28;20052;-61
2022/01/19 14:38:20;;;;;;;52.42;27.92;;;;;;;;;;5092796;28;20048;-61
2022/01/19 14:41:05;;;;;;;59.35;29.17;;;;;;;;;;5092440;28;20049;-61
2022/01/19 14:43:44;;;;;;;47.78;26.23;;;;;;;;;;5091315;28;20131;-62
2022/01/19 14:46:18;;;;;;;60.67;27.52;;;;;;;;;;5092479;28;20059;-61
2022/01/19 14:48:46;;;;;;;49.10;27.40;;;;;;;;;;5092518;28;20048;-61
2022/01/19 14:51:15;;;;;;;57.35;28.75;;;;;;;;;;5092451;28;20135;-61
2022/01/19 14:53:42;;;;;;;53.78;27.83;;;;;;;;;;5091831;28;20076;-61
2022/01/19 14:56:08;;;;;;;48.95;27.17;;;;;;;;;;5092412;28;20052;-61
2022/01/19 14:58:36;;;;;;;57.88;27.33;;;;;;;;;;5092207;28;20106;-61
2022/01/19 15:01:02;;;;;;;51.70;27.42;;;;;;;;;;5092002;28;20137;-62
2022/01/19 15:03:29;;;;;;;52.67;26.58;;;;;;;;;;5098259;27;20067;-62
2022/01/19 15:05:55;;;;;;;49.25;27.23;;;;;;;;;;5132840;27;20048;-62
2022/01/19 15:08:22;;;;;;;48.72;26.95;;;;;;;;;;5133880;27;20044;-61
2022/01/19 15:10:48;;;;;;;51.10;26.27;;;;;;;;;;5133200;27;20055;-61
2022/01/19 15:13:14;;;;;;;55.25;27.70;;;;;;;;;;5132560;27;20058;-62
2022/01/19 15:15:40;;;;;;;48.90;26.10;;;;;;;;;;5114649;27;20509;-62
2022/01/19 15:18:07;;;;;;;46.55;26.52;;;;;;;;;;5132926;27;20052;-65
2022/01/19 15:20:38;;;;;;;55.28;26.70;;;;;;;;;;5117368;27;20048;-62
2022/01/19 15:23:06;;;;;;;53.85;26.33;;;;;;;;;;5132034;27;20055;-64
2022/01/19 15:25:34;;;;;;;52.55;25.85;;;;;;;;;;5127848;27;20047;-64
2022/01/19 15:28:00;;;;;;;54.60;26.23;;;;;;;;;;5133571;27;20051;-63
2022/01/19 15:30:27;;;;;;;52.83;26.35;;;;;;;;;;5125687;27;20056;-63
2022/01/19 15:32:54;;;;;;;44.88;23.50;;;;;;;;;;5133665;27;20157;-63
2022/01/19 15:35:21;;;;;;;44.47;24.20;;;;;;;;;;5136168;27;20048;-63
2022/01/19 15:37:48;;;;;;;46.05;25.00;;;;;;;;;;5133981;27;20524;-63
2022/01/19 15:40:15;;;;;;;48.22;23.92;;;;;;;;;;5121178;27;20082;-63
2022/01/19 15:43:00;;;;;;;47.93;24.40;;;;;;;;;;5121051;27;20058;-65
2022/01/19 15:45:29;;;;;;;55.00;24.90;;;;;;;;;;5129588;27;20062;-64